KFTY/FTY METAR and TAF weather

Enter ICAO airport designator
Station Type Date Time Source
KFTY METAR 2020/11/27 13:53 UTC NOAA

KFTY 271353Z 00000KT 10SM CLR 08/07 A3016 RMK AO2 RAB03E12 SLP212 P0000 T00830072


Station Type Date Time Source
KFTY Decoded METAR 2020/11/27 13:53 UTC NOAA

ATLANTA FULTON COUNTY AIRPORT , GA, United States (KFTY) 33-47N 84-31W 263M
Nov 27, 2020 - 08:53 AM EST / 2020.11.27 1353 UTC
Wind: Calm:0
Visibility: 10 mile(s):0
Sky conditions: clear
Precipitation last hour: A trace
Temperature: 46.9 F (8.3 C)
Dew Point: 45.0 F (7.2 C)
Relative Humidity: 92%
Pressure (altimeter): 30.16 in. Hg (1021 hPa)
ob: KFTY 271353Z 00000KT 10SM CLR 08/07 A3016 RMK AO2 RAB03E12 SLP212 P0000 T00830072
cycle: 14

Station Type Date Time Source
KFTY TAF 2020/11/27 13:42 UTC NOAA

TAF
AMD KFTY 271241Z 2713/2812 00000KT P6SM FEW250
FM271600 31004KT P6SM BKN200
FM272100 34003KT P6SM SCT060 BKN120
FM280200 00000KT P6SM BKN050 OVC080
FM280600 32004KT P6SM -RA OVC040

Example: see airport list